createdAt,value
2023-06-22T00:02:23.569Z,7.60
2023-06-22T00:04:49.978Z,8.43
2023-06-22T00:07:16.320Z,8.13
2023-06-22T00:09:42.643Z,8.32
2023-06-22T00:12:09.248Z,8.57
2023-06-22T00:14:35.615Z,8.25
2023-06-22T00:17:02.018Z,8.15
2023-06-22T00:19:28.443Z,8.57
2023-06-22T00:21:54.753Z,8.65
2023-06-22T00:24:21.282Z,8.68
2023-06-22T00:26:48.852Z,8.40
2023-06-22T00:29:16.305Z,8.00
2023-06-22T00:31:42.833Z,8.18
2023-06-22T00:34:09.932Z,8.75
2023-06-22T00:36:36.904Z,8.20
2023-06-22T00:39:04.336Z,8.32
2023-06-22T00:41:30.659Z,7.85
2023-06-22T00:43:57.702Z,7.55
2023-06-22T00:46:24.699Z,7.97
2023-06-22T00:48:51.398Z,8.23
2023-06-22T00:51:17.777Z,7.93
2023-06-22T00:53:45.314Z,7.57
2023-06-22T00:56:13.948Z,8.15
2023-06-22T00:58:42.546Z,8.20
2023-06-22T01:01:09.701Z,7.90
2023-06-22T01:03:36.864Z,7.82
2023-06-22T01:06:10.312Z,8.30
2023-06-22T01:08:51.071Z,8.95
2023-06-22T01:11:21.612Z,7.72
2023-06-22T01:13:56.307Z,9.25
2023-06-22T01:16:22.691Z,9.93
2023-06-22T01:18:51.407Z,9.55
2023-06-22T01:21:20.242Z,9.35
2023-06-22T01:23:49.339Z,9.32
2023-06-22T01:26:19.916Z,8.48
2023-06-22T01:28:48.887Z,9.10
2023-06-22T01:31:17.733Z,9.07
2023-06-22T01:33:45.193Z,9.18
2023-06-22T01:36:14.234Z,8.30
2023-06-22T01:38:40.724Z,9.77
2023-06-22T01:41:07.193Z,9.45
2023-06-22T01:43:33.786Z,9.48
2023-06-22T01:46:02.490Z,9.82
2023-06-22T01:48:29.962Z,9.35
2023-06-22T01:50:56.317Z,10.07
2023-06-22T01:53:23.429Z,10.05
2023-06-22T01:55:52.029Z,10.75
2023-06-22T01:58:21.154Z,11.57
2023-06-22T02:00:54.162Z,9.85
2023-06-22T02:03:26.514Z,11.95
2023-06-22T02:05:55.887Z,10.50
2023-06-22T02:08:25.583Z,11.57
2023-06-22T02:10:52.596Z,11.50
2023-06-22T02:13:20.983Z,13.40
2023-06-22T02:15:48.087Z,11.02
2023-06-22T02:18:14.760Z,11.20
2023-06-22T02:20:41.148Z,10.57
2023-06-22T02:23:08.095Z,11.75
2023-06-22T02:25:36.326Z,11.02
2023-06-22T02:28:03.058Z,11.73
2023-06-22T02:30:29.786Z,11.65
2023-06-22T02:32:59.600Z,11.18
2023-06-22T02:35:26.939Z,11.63
2023-06-22T02:37:53.466Z,11.48
2023-06-22T02:40:19.916Z,12.15
2023-06-22T02:42:46.303Z,11.48
2023-06-22T02:45:12.639Z,12.65
2023-06-22T02:47:39.097Z,11.98
2023-06-22T02:50:05.770Z,11.77
2023-06-22T02:52:34.984Z,12.30
2023-06-22T02:55:02.271Z,12.57
2023-06-22T02:57:29.203Z,12.18
2023-06-22T02:59:56.563Z,12.70
2023-06-22T03:02:23.272Z,12.50
2023-06-22T03:04:50.254Z,12.95
2023-06-22T03:07:18.395Z,12.77
2023-06-22T03:09:45.443Z,12.02
2023-06-22T03:12:12.159Z,11.82
2023-06-22T03:14:56.630Z,11.85
2023-06-22T03:17:22.988Z,12.45
2023-06-22T03:19:49.387Z,11.90
2023-06-22T03:22:16.111Z,12.35
2023-06-22T03:24:42.729Z,12.35
2023-06-22T03:27:09.173Z,12.90
2023-06-22T03:29:35.712Z,12.20
2023-06-22T03:32:02.258Z,11.82
2023-06-22T03:34:28.744Z,13.73
2023-06-22T03:36:55.206Z,13.10
2023-06-22T03:39:21.603Z,13.65
2023-06-22T03:41:48.392Z,13.80
2023-06-22T03:44:14.739Z,13.60
2023-06-22T03:46:42.367Z,13.32
2023-06-22T03:49:08.806Z,13.23
2023-06-22T03:51:35.294Z,12.57
2023-06-22T03:54:01.702Z,11.95
2023-06-22T03:56:28.099Z,13.23
2023-06-22T03:58:54.442Z,13.00
2023-06-22T04:01:20.757Z,13.18
2023-06-22T04:03:49.684Z,12.30
2023-06-22T04:06:16.238Z,12.63
2023-06-22T04:08:43.100Z,13.20
2023-06-22T04:11:09.421Z,14.18
2023-06-22T04:13:35.766Z,12.52
2023-06-22T04:16:02.387Z,13.57
2023-06-22T04:18:28.703Z,13.80
2023-06-22T04:20:55.021Z,12.65
2023-06-22T04:23:21.378Z,13.95
2023-06-22T04:25:47.735Z,13.70
2023-06-22T04:28:14.101Z,13.93
2023-06-22T04:30:47.589Z,12.70
2023-06-22T04:33:18.692Z,12.25
2023-06-22T04:35:48.084Z,12.40
2023-06-22T04:38:14.541Z,12.63
2023-06-22T04:40:41.341Z,12.35
2023-06-22T04:43:07.818Z,12.27
2023-06-22T04:45:34.155Z,12.63
2023-06-22T04:48:00.601Z,12.18
2023-06-22T04:50:27.112Z,12.70
2023-06-22T04:52:53.901Z,11.57
2023-06-22T04:55:20.928Z,11.23
2023-06-22T04:57:50.509Z,11.65
2023-06-22T05:00:20.809Z,12.00
2023-06-22T05:02:47.786Z,11.43
2023-06-22T05:05:14.761Z,11.50
2023-06-22T05:07:44.083Z,11.98
2023-06-22T05:10:12.243Z,11.50
2023-06-22T05:12:38.804Z,11.85
2023-06-22T05:15:06.002Z,12.73
2023-06-22T05:17:32.339Z,11.02
2023-06-22T05:19:58.713Z,11.57
2023-06-22T05:22:25.093Z,11.75
2023-06-22T05:24:51.381Z,11.50
2023-06-22T05:27:17.722Z,11.50
2023-06-22T05:35:11.587Z,11.32
2023-06-22T05:37:38.242Z,10.30
2023-06-22T05:40:05.047Z,10.95
2023-06-22T05:42:31.361Z,11.02
2023-06-22T05:44:59.798Z,10.57
2023-06-22T05:47:26.144Z,10.68
2023-06-22T05:49:52.523Z,10.27
2023-06-22T05:52:18.842Z,10.60
2023-06-22T05:54:45.190Z,10.25
2023-06-22T05:57:11.485Z,10.93
2023-06-22T05:59:37.812Z,10.43
2023-06-22T06:02:04.320Z,9.75
2023-06-22T06:04:31.142Z,9.70
2023-06-22T06:06:57.978Z,10.20
2023-06-22T06:09:24.299Z,9.38
2023-06-22T06:11:50.707Z,9.82
2023-06-22T06:14:18.137Z,10.15
2023-06-22T06:16:44.462Z,10.40
2023-06-22T06:19:10.776Z,9.32
2023-06-22T06:21:37.090Z,9.80
2023-06-22T06:24:03.511Z,9.57
2023-06-22T06:26:30.696Z,9.70
2023-06-22T06:28:58.302Z,8.73
2023-06-22T06:31:24.717Z,9.63
2023-06-22T06:33:51.328Z,9.73
2023-06-22T06:36:18.007Z,9.88
2023-06-22T06:38:44.406Z,9.15
2023-06-22T06:41:10.749Z,10.00
2023-06-22T06:43:37.091Z,9.70
2023-06-22T06:46:04.281Z,9.90
2023-06-22T06:48:30.756Z,9.57
2023-06-22T06:50:57.096Z,9.02
2023-06-22T06:53:23.424Z,9.30
2023-06-22T06:55:49.793Z,9.25
2023-06-22T06:58:17.332Z,9.60
2023-06-22T07:00:44.599Z,9.30
2023-06-22T07:03:10.997Z,9.90
2023-06-22T07:05:37.348Z,9.40
2023-06-22T07:08:03.750Z,9.45
2023-06-22T07:10:30.835Z,9.38
2023-06-22T07:12:58.216Z,9.45
2023-06-22T07:15:24.646Z,8.85
2023-06-22T07:17:51.033Z,9.07
2023-06-22T07:20:17.672Z,9.07
2023-06-22T07:22:45.537Z,9.38
2023-06-22T07:25:15.126Z,8.93
2023-06-22T07:27:46.093Z,9.15
2023-06-22T07:30:13.389Z,9.02
2023-06-22T07:32:39.780Z,9.23
2023-06-22T07:35:07.380Z,8.77
2023-06-22T07:37:35.000Z,8.95
2023-06-22T07:40:01.425Z,10.05
2023-06-22T07:42:28.208Z,9.15
2023-06-22T07:44:55.244Z,9.52
2023-06-22T07:47:26.034Z,9.00
2023-06-22T07:49:53.034Z,9.32
2023-06-22T07:52:19.382Z,9.52
2023-06-22T07:54:45.672Z,9.75
2023-06-22T07:57:11.992Z,9.27
2023-06-22T07:59:38.623Z,9.57
2023-06-22T08:02:05.941Z,9.57
2023-06-22T08:04:34.989Z,9.68
2023-06-22T08:07:01.830Z,9.27
2023-06-22T08:09:31.632Z,8.82
2023-06-22T08:11:58.120Z,9.32
2023-06-22T08:14:24.996Z,8.82
2023-06-22T08:16:51.351Z,10.13
2023-06-22T08:19:17.880Z,9.98
2023-06-22T08:21:44.352Z,8.80
2023-06-22T08:24:10.690Z,9.73
2023-06-22T08:26:38.514Z,9.43
2023-06-22T08:29:05.076Z,9.00
2023-06-22T08:31:32.078Z,9.95
2023-06-22T08:33:58.451Z,9.52
2023-06-22T08:36:24.815Z,10.07
2023-06-22T08:38:52.286Z,10.00
2023-06-22T08:41:18.932Z,10.68
2023-06-22T08:43:48.291Z,10.00
2023-06-22T08:46:14.674Z,10.15
2023-06-22T08:48:41.056Z,9.98
2023-06-22T08:51:07.463Z,9.43
2023-06-22T08:53:33.820Z,9.57
2023-06-22T08:56:00.260Z,10.40
2023-06-22T08:58:26.649Z,10.32
2023-06-22T09:00:53.392Z,11.20
2023-06-22T09:03:21.591Z,10.48
2023-06-22T09:05:48.125Z,10.23
2023-06-22T09:08:14.463Z,10.68
2023-06-22T09:10:40.778Z,12.20
2023-06-22T09:13:07.130Z,10.80
2023-06-22T09:15:33.893Z,9.10
2023-06-22T09:18:00.562Z,10.15
2023-06-22T09:20:27.227Z,10.20
2023-06-22T09:22:53.955Z,10.00
2023-06-22T09:25:21.834Z,10.07
2023-06-22T09:27:48.675Z,8.82
2023-06-22T09:30:15.028Z,10.50
2023-06-22T09:32:41.527Z,10.70
2023-06-22T09:35:09.332Z,9.65
2023-06-22T09:37:35.709Z,10.38
2023-06-22T09:40:02.198Z,10.45
2023-06-22T09:42:28.537Z,10.43
2023-06-22T09:44:54.845Z,11.00
2023-06-22T09:47:21.199Z,10.25
2023-06-22T09:49:48.861Z,10.43
2023-06-22T09:52:15.534Z,10.75
2023-06-22T09:54:41.880Z,10.82
2023-06-22T09:57:08.393Z,10.02
2023-06-22T09:59:34.991Z,10.10
2023-06-22T10:02:01.386Z,9.90
2023-06-22T10:04:27.991Z,10.80
2023-06-22T10:06:54.564Z,9.65
2023-06-22T10:09:22.173Z,10.15
2023-06-22T10:11:48.523Z,10.57
2023-06-22T10:14:14.860Z,10.65
2023-06-22T10:16:42.063Z,10.65
2023-06-22T10:19:08.901Z,10.80
2023-06-22T10:21:35.641Z,9.95
2023-06-22T10:24:07.052Z,10.27
2023-06-22T10:26:34.032Z,10.15
2023-06-22T10:31:34.343Z,10.55
2023-06-22T10:34:00.863Z,9.75
2023-06-22T10:36:27.414Z,9.55
2023-06-22T10:38:54.521Z,9.73
2023-06-22T10:41:20.846Z,9.38
2023-06-22T10:43:47.187Z,9.77
2023-06-22T10:46:13.526Z,9.75
2023-06-22T10:48:40.368Z,9.07
2023-06-22T10:51:06.671Z,8.95
2023-06-22T10:53:33.000Z,9.65
2023-06-22T10:55:59.927Z,10.10
2023-06-22T10:58:26.531Z,10.20
2023-06-22T11:00:52.848Z,9.48
2023-06-22T11:03:19.312Z,9.40
2023-06-22T11:05:45.729Z,9.45
2023-06-22T11:08:12.102Z,10.82
2023-06-22T11:10:38.487Z,9.63
2023-06-22T11:13:06.188Z,8.68
2023-06-22T11:15:32.535Z,7.75
2023-06-22T11:17:59.252Z,8.00
2023-06-22T11:20:25.668Z,7.82
2023-06-22T11:22:52.074Z,8.35
2023-06-22T11:25:18.400Z,8.40
2023-06-22T11:27:44.712Z,7.88
2023-06-22T11:30:11.231Z,7.95
2023-06-22T11:32:37.809Z,8.15
2023-06-22T11:35:04.329Z,8.27
2023-06-22T11:37:30.653Z,8.02
2023-06-22T11:40:06.268Z,8.25
2023-06-22T11:42:33.884Z,8.70
2023-06-22T11:45:01.377Z,7.95
2023-06-22T11:47:27.783Z,8.45
2023-06-22T11:49:54.261Z,8.02
2023-06-22T11:52:20.721Z,8.07
2023-06-22T11:54:47.063Z,7.72
2023-06-22T11:57:13.692Z,8.20
2023-06-22T11:59:40.043Z,7.70
2023-06-22T12:02:08.285Z,7.88
2023-06-22T12:04:34.671Z,8.15
2023-06-22T12:07:01.030Z,8.25
2023-06-22T12:09:27.375Z,8.38
2023-06-22T12:11:53.721Z,8.77
2023-06-22T12:14:20.117Z,8.43
2023-06-22T12:16:46.474Z,8.23
2023-06-22T12:19:12.855Z,8.45
2023-06-22T12:21:40.236Z,8.50
2023-06-22T12:24:06.590Z,8.48
2023-06-22T12:26:32.938Z,9.10
2023-06-22T12:28:59.355Z,8.30
2023-06-22T12:31:25.746Z,8.73
2023-06-22T12:33:52.110Z,8.77
2023-06-22T12:36:18.526Z,8.55
2023-06-22T12:38:44.817Z,8.27
2023-06-22T12:41:11.184Z,8.20
2023-06-22T12:43:37.519Z,8.57
2023-06-22T12:46:03.882Z,8.65
2023-06-22T12:48:30.187Z,8.00
2023-06-22T12:50:56.692Z,7.93
2023-06-22T12:53:24.567Z,10.18
2023-06-22T12:55:50.930Z,7.82
2023-06-22T12:58:17.686Z,8.05
2023-06-22T13:00:44.042Z,8.38
2023-06-22T13:03:10.600Z,8.10
2023-06-22T13:05:37.333Z,8.05
2023-06-22T13:08:04.478Z,9.07
2023-06-22T13:10:31.071Z,8.73
2023-06-22T13:13:01.530Z,7.95
2023-06-22T13:15:29.732Z,8.18
2023-06-22T13:17:56.710Z,8.55
2023-06-22T13:20:23.097Z,8.25
2023-06-22T13:22:49.442Z,8.45
2023-06-22T13:25:20.006Z,8.63
2023-06-22T13:27:46.365Z,9.18
2023-06-22T13:30:14.792Z,8.98
2023-06-22T13:32:42.797Z,8.80
2023-06-22T13:35:12.956Z,10.13
2023-06-22T13:43:07.569Z,10.00
2023-06-22T13:45:33.892Z,9.57
2023-06-22T13:48:00.259Z,9.70
2023-06-22T13:50:26.808Z,10.00
2023-06-22T13:52:53.280Z,9.45
2023-06-22T13:55:21.993Z,10.13
2023-06-22T13:57:48.582Z,10.90
2023-06-22T14:00:15.077Z,8.80
2023-06-22T14:02:42.490Z,10.07
2023-06-22T14:05:09.110Z,9.85
2023-06-22T14:07:35.907Z,9.05
2023-06-22T14:10:02.404Z,9.15
2023-06-22T14:12:28.866Z,10.25
2023-06-22T14:14:55.265Z,9.50
2023-06-22T14:17:25.006Z,9.32
2023-06-22T14:19:53.528Z,10.00
2023-06-22T14:22:20.424Z,9.88
2023-06-22T14:24:47.104Z,9.30
2023-06-22T14:27:13.425Z,8.88
2023-06-22T14:29:39.771Z,9.40
2023-06-22T14:32:07.391Z,8.93
2023-06-22T14:34:36.844Z,9.27
2023-06-22T14:37:03.744Z,8.43
2023-06-22T14:39:30.083Z,9.00
2023-06-22T14:41:56.538Z,8.25
2023-06-22T14:44:22.970Z,7.05
2023-06-22T14:46:49.347Z,6.53
2023-06-22T14:49:15.735Z,6.47
2023-06-22T14:51:42.065Z,6.07
2023-06-22T14:54:08.386Z,6.32
2023-06-22T14:56:35.176Z,6.60
2023-06-22T14:59:01.736Z,6.38
2023-06-22T15:01:28.165Z,6.68
2023-06-22T15:03:54.515Z,6.00
2023-06-22T15:06:20.891Z,6.20
2023-06-22T15:08:47.236Z,6.30
2023-06-22T15:11:13.725Z,5.88
2023-06-22T15:13:40.613Z,7.75
2023-06-22T15:16:07.044Z,12.60
2023-06-22T15:18:36.507Z,9.55
2023-06-22T15:21:03.274Z,7.05
2023-06-22T15:23:32.940Z,7.13
2023-06-22T15:25:59.653Z,6.07
2023-06-22T15:28:26.256Z,7.85
2023-06-22T15:30:53.088Z,7.82
2023-06-22T15:33:19.618Z,6.20
2023-06-22T15:35:46.057Z,6.15
2023-06-22T15:38:12.629Z,5.95
2023-06-22T15:40:39.048Z,6.20
2023-06-22T15:43:05.460Z,6.97
2023-06-22T15:45:31.817Z,6.47
2023-06-22T15:47:58.203Z,5.95
2023-06-22T15:50:24.552Z,4.90
2023-06-22T15:52:51.314Z,5.47
2023-06-22T15:55:19.325Z,4.85
2023-06-22T15:57:47.371Z,5.05
2023-06-22T16:00:18.366Z,5.35
2023-06-22T16:02:45.509Z,6.15
2023-06-22T16:05:11.968Z,6.78
2023-06-22T16:07:38.734Z,4.85
2023-06-22T16:10:05.930Z,6.53
2023-06-22T16:12:32.270Z,7.13
2023-06-22T16:14:58.601Z,4.35
2023-06-22T16:17:27.826Z,5.07
2023-06-22T16:19:55.453Z,5.70
2023-06-22T16:22:24.936Z,5.60
2023-06-22T16:24:53.223Z,6.00
2023-06-22T16:27:19.923Z,5.80
2023-06-22T16:29:46.254Z,5.70
2023-06-22T16:32:12.660Z,5.97
2023-06-22T16:34:39.066Z,6.40
2023-06-22T16:37:05.644Z,6.03
2023-06-22T16:39:31.955Z,4.18
2023-06-22T16:41:58.393Z,5.82
2023-06-22T16:44:24.745Z,4.18
2023-06-22T16:46:51.220Z,5.47
2023-06-22T16:49:17.616Z,5.20
2023-06-22T16:51:43.976Z,5.07
2023-06-22T16:54:10.427Z,4.93
2023-06-22T16:56:36.806Z,5.40
2023-06-22T16:59:07.468Z,5.07
2023-06-22T17:01:35.643Z,5.18
2023-06-22T17:04:10.035Z,4.97
2023-06-22T17:09:04.145Z,4.22
2023-06-22T17:11:31.165Z,4.43
2023-06-22T17:14:01.142Z,4.53
2023-06-22T17:16:28.854Z,5.10
2023-06-22T17:21:28.779Z,5.03
2023-06-22T17:23:55.170Z,4.68
2023-06-22T17:26:22.719Z,4.90
2023-06-22T17:28:53.455Z,5.40
2023-06-22T17:31:20.652Z,50.08
2023-06-22T17:33:49.524Z,73.05
2023-06-22T17:36:15.929Z,165.95
2023-06-22T17:38:42.766Z,107.35
2023-06-22T17:41:10.075Z,44.28
2023-06-22T17:43:47.059Z,13.05
2023-06-22T17:46:13.666Z,6.28
2023-06-22T17:48:44.316Z,4.90
2023-06-22T17:51:10.765Z,5.88
2023-06-22T17:53:37.103Z,9.80
2023-06-22T17:56:03.615Z,7.88
2023-06-22T17:58:30.406Z,13.63
2023-06-22T18:00:56.843Z,6.63
2023-06-22T18:03:26.596Z,5.50
2023-06-22T18:05:55.317Z,6.07
2023-06-22T18:08:25.812Z,5.10
2023-06-22T18:10:54.258Z,5.32
2023-06-22T18:13:20.767Z,5.53
2023-06-22T18:15:47.069Z,5.47
2023-06-22T18:18:14.008Z,5.00
2023-06-22T18:20:40.649Z,6.60
2023-06-22T18:23:09.199Z,6.20
2023-06-22T18:25:35.814Z,7.10
2023-06-22T18:28:02.253Z,7.03
2023-06-22T18:30:28.895Z,7.05
2023-06-22T18:32:55.314Z,6.20
2023-06-22T18:35:21.905Z,6.57
2023-06-22T18:37:49.480Z,6.95
2023-06-22T18:40:17.910Z,6.50
2023-06-22T18:42:45.658Z,6.85
2023-06-22T18:45:29.195Z,7.13
2023-06-22T18:48:05.410Z,7.60
2023-06-22T18:50:50.528Z,7.40
2023-06-22T18:53:27.498Z,7.07
2023-06-22T18:56:11.156Z,7.95
2023-06-22T18:58:37.544Z,8.02
2023-06-22T19:01:16.868Z,8.88
2023-06-22T19:03:43.313Z,8.25
2023-06-22T19:06:10.786Z,8.30
2023-06-22T19:08:55.910Z,9.77
2023-06-22T19:11:27.274Z,7.78
2023-06-22T19:13:54.514Z,9.60
2023-06-22T19:16:29.532Z,9.77
2023-06-22T19:18:56.958Z,8.95
2023-06-22T19:21:24.127Z,10.02
2023-06-22T19:23:51.265Z,10.13
2023-06-22T19:26:18.476Z,10.32
2023-06-22T19:28:44.975Z,10.70
2023-06-22T19:31:11.484Z,10.23
2023-06-22T19:33:38.124Z,11.07
2023-06-22T19:36:04.601Z,9.80
2023-06-22T19:38:31.991Z,10.52
2023-06-22T19:40:58.589Z,10.77
2023-06-22T19:43:31.222Z,11.15
2023-06-22T19:45:58.238Z,11.40
2023-06-22T19:48:25.725Z,9.90
2023-06-22T19:50:52.036Z,11.63
2023-06-22T19:53:18.384Z,11.05
2023-06-22T19:55:48.734Z,10.23
2023-06-22T19:58:18.524Z,6.18
2023-06-22T20:00:45.689Z,7.13
2023-06-22T20:03:18.023Z,6.30
2023-06-22T20:05:45.762Z,4.80
2023-06-22T20:08:13.245Z,3.40
2023-06-22T20:10:42.344Z,2.75
2023-06-22T20:13:13.387Z,2.75
2023-06-22T20:15:40.555Z,2.50
2023-06-22T20:18:10.537Z,2.85
2023-06-22T20:20:38.009Z,2.65
2023-06-22T20:23:05.424Z,1.60
2023-06-22T20:25:33.457Z,2.03
2023-06-22T20:28:08.789Z,1.83
2023-06-22T20:30:35.503Z,1.80
2023-06-22T20:33:05.435Z,1.63
2023-06-22T20:35:32.093Z,1.67
2023-06-22T20:37:58.441Z,1.45
2023-06-22T20:40:27.727Z,1.50
2023-06-22T20:43:00.686Z,1.80
2023-06-22T20:45:28.092Z,1.60
2023-06-22T20:47:57.691Z,1.63
2023-06-22T20:50:30.784Z,1.70
2023-06-22T20:52:58.051Z,1.60
2023-06-22T20:55:24.655Z,1.80
2023-06-22T20:57:51.202Z,1.80
2023-06-22T21:00:17.738Z,1.73
2023-06-22T21:02:45.064Z,2.13
2023-06-22T21:05:11.783Z,1.85
2023-06-22T21:07:39.097Z,1.50
2023-06-22T21:10:05.700Z,1.40
2023-06-22T21:12:34.194Z,1.20
2023-06-22T21:15:00.546Z,1.63
2023-06-22T21:17:27.079Z,1.27
2023-06-22T21:19:53.599Z,1.30
2023-06-22T21:22:20.627Z,1.30
2023-06-22T21:25:03.923Z,1.35
2023-06-22T21:27:30.262Z,1.10
2023-06-22T21:29:57.909Z,1.10
2023-06-22T21:32:25.080Z,1.20
2023-06-22T21:34:51.483Z,1.17
2023-06-22T21:37:17.907Z,1.20
2023-06-22T21:39:47.511Z,1.20
2023-06-22T21:42:14.330Z,1.27
2023-06-22T21:44:40.717Z,1.40
2023-06-22T21:47:07.371Z,1.10
2023-06-22T21:49:33.701Z,1.20
2023-06-22T21:52:00.088Z,1.10
2023-06-22T21:54:26.606Z,1.08
2023-06-22T21:56:52.983Z,1.20
2023-06-22T21:59:19.281Z,0.93
2023-06-22T22:01:45.816Z,0.98
2023-06-22T22:04:12.274Z,1.10
2023-06-22T22:06:39.368Z,1.20
2023-06-22T22:09:05.683Z,1.10
2023-06-22T22:11:31.979Z,0.95
2023-06-22T22:13:58.358Z,0.88
2023-06-22T22:16:24.697Z,1.20
2023-06-22T22:18:51.067Z,1.70
2023-06-22T22:21:17.369Z,1.77
2023-06-22T22:23:43.786Z,1.65
2023-06-22T22:26:10.188Z,2.25
2023-06-22T22:28:36.568Z,2.67
2023-06-22T22:31:02.970Z,2.67
2023-06-22T22:33:29.855Z,2.50
2023-06-22T22:35:56.235Z,3.10
2023-06-22T22:38:22.557Z,3.05
2023-06-22T22:40:48.906Z,3.15
2023-06-22T22:43:15.265Z,3.42
2023-06-22T22:45:41.645Z,4.10
2023-06-22T22:48:10.021Z,4.15
2023-06-22T22:50:36.941Z,4.32
2023-06-22T22:53:05.073Z,4.22
2023-06-22T22:55:31.678Z,4.45
2023-06-22T22:57:58.324Z,4.55
2023-06-22T23:00:24.775Z,4.47
2023-06-22T23:02:51.255Z,5.15
2023-06-22T23:05:17.619Z,5.25
2023-06-22T23:07:44.029Z,5.50
2023-06-22T23:10:10.458Z,5.25
2023-06-22T23:12:36.807Z,4.70
2023-06-22T23:15:03.702Z,5.72
2023-06-22T23:17:30.393Z,5.22
2023-06-22T23:19:57.147Z,5.72
2023-06-22T23:22:24.365Z,6.10
2023-06-22T23:24:50.790Z,5.80
2023-06-22T23:27:17.275Z,5.75
2023-06-22T23:29:45.046Z,5.78
2023-06-22T23:32:11.810Z,5.82
2023-06-22T23:34:38.255Z,6.03
2023-06-22T23:37:04.676Z,5.75
2023-06-22T23:39:31.015Z,6.05
2023-06-22T23:41:58.058Z,6.00
2023-06-22T23:44:25.831Z,6.13
2023-06-22T23:46:52.391Z,7.25
2023-06-22T23:49:18.725Z,6.15
2023-06-22T23:51:45.041Z,7.55
2023-06-22T23:54:11.394Z,7.40
2023-06-22T23:56:38.023Z,7.38
2023-06-22T23:59:04.867Z,7.78
